Danville, IL (61832)

6:35 PM CDT on September 30, 2016 (GMT -0500)
Danville Area Community College | | Change Station

Elev 656 ft 40.13 °N, 87.59 °W | Updated 15 seconds ago

Rain
Rain
64.4 °F
Feels Like 64.4 °F
N
4.0
Wind Variable Wind from WSW
Gusts 9.0 mph

Today
High -- | Low -- °F
--% Chance of Precip.
Yesterday
High -- | Low -- °F
Precip. -- in
Pressure 29.98 in
Visibility 10.0 miles
Clouds Scattered Clouds 2900 ft
Mostly Cloudy 7000 ft
Overcast 10000 ft
Dew Point 62 °F
Humidity 91%
Rainfall 0.35 in
Snow Depth Not available.
6:46 AM 6:33 PM
Waning Crescent, 0% visible
METAR KDNV 302315Z AUTO 03008KT 10SM RA SCT029 BKN070 OVC100 17/16 A2998 RMK AO2 T01720155
Pressure 29.98 in
Visibility 10.0 miles
Clouds Scattered Clouds 2900 ft
Mostly Cloudy 7000 ft
Overcast 10000 ft
Dew Point 62 °F
Humidity 91%
Rainfall 0.35 in
Snow Depth Not available.
6:46 AM 6:33 PM
Waning Crescent, 0% visible
METAR KDNV 302315Z AUTO 03008KT 10SM RA SCT029 BKN070 OVC100 17/16 A2998 RMK AO2 T01720155

10-Day Weather Forecast

Almanac

Astronomy

Sep. 30, 2016 Rise Set
Actual Time
Civil Twilight
Nautical Twilight
Astronomical Twilight
Moon
Length of Visible Light
Length of Day
Tomorrow will be .
, % of the Moon is Illuminated

Today's Extremes

State Highs State Lows

Community

WunderPhotos

Upload Photos

1,942,819 photos uploaded!

WunderBlog® & News

Nearby

Air Quality

  Air Quality AQ Index Pollutant
Not available.

Snow Depth

Station Depth Elevation

Earthquake Activity

City Distance Mag. Time & Date
Minimum magnitude displayed is 2.5.

Coastal Water Temperatures

Place Temperature

Stations

Nearby Weather Stations

Station Location Temp. Windchill Dew Point Humidity Wind Precip. Elev Updated Type
                   

Watches & Warnings

There are currently no watches in effect.